createdAt,value
2018-01-19T00:00:56.718Z,945.18
2018-01-19T00:01:56.695Z,945.14
2018-01-19T00:02:56.710Z,945.21
2018-01-19T00:03:56.724Z,945.2
2018-01-19T00:04:56.738Z,945.12
2018-01-19T00:05:56.801Z,945.07
2018-01-19T00:06:56.765Z,945.02
2018-01-19T00:07:56.782Z,945.05
2018-01-19T00:08:56.796Z,945.1
2018-01-19T00:09:56.807Z,945.08
2018-01-19T00:10:56.820Z,945.05
2018-01-19T00:11:56.835Z,945.05
2018-01-19T00:12:56.848Z,945.04
2018-01-19T00:13:56.862Z,945.08
2018-01-19T00:14:56.875Z,945.26
2018-01-19T00:15:56.890Z,945.3
2018-01-19T00:16:56.902Z,945.35
2018-01-19T00:17:56.915Z,945.28
2018-01-19T00:18:56.929Z,945.15
2018-01-19T00:19:56.943Z,945.16
2018-01-19T00:20:57.006Z,945.23
2018-01-19T00:21:56.976Z,945.17
2018-01-19T00:22:56.985Z,945.24
2018-01-19T00:23:56.997Z,945.28
2018-01-19T00:24:57.012Z,945.29
2018-01-19T00:25:57.025Z,945.27
2018-01-19T00:26:57.039Z,945.3
2018-01-19T00:27:57.052Z,945.29
2018-01-19T00:28:57.066Z,945.2
2018-01-19T00:29:57.080Z,945.13
2018-01-19T00:30:57.093Z,945.01
2018-01-19T00:31:57.107Z,944.99
2018-01-19T00:32:57.121Z,944.95
2018-01-19T00:33:57.134Z,944.91
2018-01-19T00:34:57.148Z,944.96
2018-01-19T00:35:57.212Z,944.98
2018-01-19T00:36:57.175Z,944.95
2018-01-19T00:37:57.190Z,944.99
2018-01-19T00:38:57.202Z,945
2018-01-19T00:39:57.217Z,944.97
2018-01-19T00:40:57.231Z,945.03
2018-01-19T00:41:57.244Z,944.92
2018-01-19T00:42:57.258Z,944.92
2018-01-19T00:43:57.270Z,944.9
2018-01-19T00:44:57.317Z,944.91
2018-01-19T00:45:58.298Z,944.93
2018-01-19T00:46:57.311Z,945
2018-01-19T00:47:57.327Z,945.05
2018-01-19T00:48:57.339Z,945.12
2018-01-19T00:49:57.352Z,945.07
2018-01-19T00:50:57.367Z,945.04
2018-01-19T00:51:57.385Z,944.99
2018-01-19T00:52:57.394Z,944.99
2018-01-19T00:53:57.409Z,945.01
2018-01-19T00:54:57.422Z,945.05
2018-01-19T00:55:57.437Z,945.08
2018-01-19T00:56:57.449Z,945.12
2018-01-19T00:57:57.464Z,945.12
2018-01-19T00:58:57.478Z,945.13
2018-01-19T00:59:57.495Z,945.09
2018-01-19T01:00:57.506Z,945.18
2018-01-19T01:01:57.519Z,945.23
2018-01-19T01:02:57.536Z,945.17
2018-01-19T01:03:57.548Z,945.16
2018-01-19T01:04:57.561Z,945.14
2018-01-19T01:05:57.577Z,945.07
2018-01-19T01:06:57.657Z,945.06
2018-01-19T01:07:57.605Z,945.08
2018-01-19T01:08:57.618Z,945.07
2018-01-19T01:09:57.633Z,945.05
2018-01-19T01:10:57.647Z,945.01
2018-01-19T01:11:57.661Z,944.99
2018-01-19T01:12:57.676Z,945.03
2018-01-19T01:13:57.690Z,945.19
2018-01-19T01:14:57.706Z,945.29
2018-01-19T01:15:57.720Z,945.38
2018-01-19T01:16:57.734Z,945.45
2018-01-19T01:17:57.748Z,945.47
2018-01-19T01:18:57.762Z,945.36
2018-01-19T01:19:57.776Z,945.25
2018-01-19T01:20:57.791Z,945.11
2018-01-19T01:21:57.858Z,945.02
2018-01-19T01:22:57.821Z,945.18
2018-01-19T01:23:57.835Z,945.3
2018-01-19T01:24:57.852Z,945.32
2018-01-19T01:25:57.863Z,945.35
2018-01-19T01:26:58.128Z,945.31
2018-01-19T01:27:57.892Z,945.28
2018-01-19T01:28:57.907Z,945.25
2018-01-19T01:29:57.921Z,945.17
2018-01-19T02:01:50.063Z,944.95
2018-01-19T02:02:40.915Z,945.06
2018-01-19T02:03:40.930Z,945.11
2018-01-19T02:04:40.943Z,945.23
2018-01-19T02:05:40.957Z,945.1
2018-01-19T02:06:40.972Z,945.09
2018-01-19T02:07:40.985Z,945.09
2018-01-19T02:08:40.998Z,945
2018-01-19T02:09:41.015Z,944.83
2018-01-19T02:10:41.028Z,944.86
2018-01-19T02:11:41.042Z,944.83
2018-01-19T02:12:41.056Z,944.78
2018-01-19T02:13:41.084Z,944.8
2018-01-19T02:14:41.083Z,944.79
2018-01-19T02:15:41.097Z,944.81
2018-01-19T02:16:41.111Z,944.71
2018-01-19T02:17:41.176Z,944.74
2018-01-19T02:18:41.139Z,944.62
2018-01-19T02:19:41.153Z,944.59
2018-01-19T02:20:41.168Z,944.55
2018-01-19T02:21:41.182Z,944.65
2018-01-19T02:22:41.204Z,944.7
2018-01-19T02:23:41.208Z,944.86
2018-01-19T02:24:41.223Z,944.84
2018-01-19T02:25:41.236Z,944.8
2018-01-19T02:26:41.249Z,944.63
2018-01-19T02:27:41.264Z,944.69
2018-01-19T02:28:41.279Z,944.76
2018-01-19T02:29:41.292Z,944.7
2018-01-19T02:30:41.306Z,944.68
2018-01-19T02:31:41.320Z,944.7
2018-01-19T02:32:41.385Z,944.73
2018-01-19T02:33:41.347Z,944.74
2018-01-19T02:34:41.362Z,944.76
2018-01-19T02:35:41.379Z,944.73
2018-01-19T02:36:41.388Z,944.65
2018-01-19T02:37:41.403Z,944.58
2018-01-19T02:38:41.419Z,944.55
2018-01-19T02:39:41.431Z,944.63
2018-01-19T02:40:41.443Z,944.51
2018-01-19T02:41:41.457Z,944.47
2018-01-19T02:42:41.471Z,944.45
2018-01-19T02:43:41.485Z,944.45
2018-01-19T02:44:41.498Z,944.51
2018-01-19T02:45:41.514Z,944.54
2018-01-19T02:46:41.526Z,944.64
2018-01-19T02:47:41.589Z,944.6
2018-01-19T02:48:41.560Z,944.63
2018-01-19T02:49:41.568Z,944.61
2018-01-19T02:50:41.580Z,944.65
2018-01-19T02:51:41.608Z,944.67
2018-01-19T02:52:41.608Z,944.63
2018-01-19T02:53:41.622Z,944.69
2018-01-19T02:54:41.635Z,944.66
2018-01-19T02:55:41.649Z,944.63
2018-01-19T02:56:41.663Z,944.75
2018-01-19T02:57:41.677Z,944.61
2018-01-19T02:58:41.689Z,944.59
2018-01-19T02:59:41.704Z,944.74
2018-01-19T03:00:41.719Z,944.71
2018-01-19T03:01:41.731Z,944.64
2018-01-19T03:02:41.794Z,944.67
2018-01-19T03:03:41.758Z,944.71
2018-01-19T03:04:41.772Z,944.78
2018-01-19T03:05:41.786Z,944.78
2018-01-19T03:06:41.800Z,944.86
2018-01-19T03:07:41.813Z,944.8
2018-01-19T03:08:41.828Z,944.83
2018-01-19T03:09:41.842Z,944.7
2018-01-19T03:10:41.860Z,944.72
2018-01-19T03:11:41.869Z,944.84
2018-01-19T03:12:41.883Z,944.68
2018-01-19T03:13:41.895Z,944.7
2018-01-19T03:14:41.910Z,944.68
2018-01-19T03:15:41.924Z,944.7
2018-01-19T03:16:41.938Z,944.7
2018-01-19T03:17:42.003Z,944.78
2018-01-19T03:18:41.967Z,944.78
2018-01-19T03:19:41.979Z,944.76
2018-01-19T03:20:41.994Z,944.81
2018-01-19T03:21:42.007Z,944.81
2018-01-19T03:22:42.023Z,944.85
2018-01-19T03:23:42.035Z,944.87
2018-01-19T03:24:42.048Z,944.91
2018-01-19T03:25:42.063Z,944.91
2018-01-19T03:26:42.076Z,944.87
2018-01-19T03:27:42.091Z,944.99
2018-01-19T03:28:42.104Z,944.95
2018-01-19T03:29:42.118Z,944.91
2018-01-19T03:30:42.133Z,944.99
2018-01-19T03:31:42.146Z,944.97
2018-01-19T03:32:42.159Z,944.99
2018-01-19T03:33:42.173Z,944.94
2018-01-19T03:34:42.237Z,944.86
2018-01-19T03:35:42.200Z,944.84
2018-01-19T03:36:42.215Z,944.94
2018-01-19T03:37:42.228Z,944.99
2018-01-19T03:38:42.242Z,945.03
2018-01-19T03:39:42.256Z,944.98
2018-01-19T03:40:42.270Z,944.62
2018-01-19T03:41:42.284Z,944.67
2018-01-19T03:42:42.298Z,944.9
2018-01-19T03:43:42.311Z,944.87
2018-01-19T03:44:42.325Z,944.92
2018-01-19T03:45:42.339Z,944.8
2018-01-19T03:46:42.352Z,944.78
2018-01-19T03:47:42.366Z,944.78
2018-01-19T03:48:42.380Z,944.83
2018-01-19T03:49:43.445Z,944.86
2018-01-19T03:50:42.412Z,944.89
2018-01-19T03:51:42.421Z,944.93
2018-01-19T03:52:42.435Z,944.93
2018-01-19T03:53:42.449Z,944.95
2018-01-19T03:54:42.462Z,945
2018-01-19T03:55:42.476Z,944.95
2018-01-19T03:56:42.508Z,944.88
2018-01-19T03:57:42.503Z,944.97
2018-01-19T03:58:42.517Z,945
2018-01-19T03:59:42.531Z,945.06
2018-01-19T04:00:42.544Z,945.04
2018-01-19T04:01:42.558Z,944.98
2018-01-19T04:02:42.572Z,945.02
2018-01-19T04:03:42.588Z,945.09
2018-01-19T04:04:42.600Z,945.04
2018-01-19T04:05:42.613Z,945.05
2018-01-19T04:06:42.626Z,945.03
2018-01-19T04:07:42.644Z,945.01
2018-01-19T04:08:42.655Z,945.06
2018-01-19T04:09:42.717Z,945.02
2018-01-19T04:10:42.682Z,945.03
2018-01-19T04:11:42.694Z,945.12
2018-01-19T04:12:42.710Z,945.15
2018-01-19T04:13:42.723Z,945.18
2018-01-19T04:14:42.736Z,945.2
2018-01-19T04:15:42.752Z,945.16
2018-01-19T04:16:42.763Z,945.22
2018-01-19T04:17:42.777Z,945.27
2018-01-19T04:18:42.791Z,945.23
2018-01-19T04:19:42.804Z,945.16
2018-01-19T04:20:42.845Z,945.19
2018-01-19T04:21:42.832Z,945.3
2018-01-19T04:22:42.847Z,945.31
2018-01-19T04:23:42.863Z,945.26
2018-01-19T04:24:42.928Z,945.25
2018-01-19T04:25:42.888Z,945.26
2018-01-19T04:26:42.900Z,945.28
2018-01-19T04:27:42.915Z,945.3
2018-01-19T04:28:42.928Z,945.29
2018-01-19T04:29:42.943Z,945.27
2018-01-19T04:30:42.955Z,945.28
2018-01-19T04:31:42.969Z,945.37
2018-01-19T04:32:42.993Z,945.39
2018-01-19T04:33:42.997Z,945.35
2018-01-19T04:34:43.061Z,945.36
2018-01-19T04:35:43.024Z,945.39
2018-01-19T04:36:43.038Z,945.37
2018-01-19T04:37:43.052Z,945.32
2018-01-19T04:38:43.065Z,945.41
2018-01-19T04:39:43.130Z,945.41
2018-01-19T04:40:43.093Z,945.41
2018-01-19T04:41:43.109Z,945.28
2018-01-19T04:42:43.120Z,945.27
2018-01-19T04:43:43.135Z,945.33
2018-01-19T04:44:43.147Z,945.37
2018-01-19T04:45:43.163Z,945.34
2018-01-19T04:46:43.176Z,945.37
2018-01-19T04:47:43.189Z,945.36
2018-01-19T04:48:43.203Z,945.35
2018-01-19T04:49:43.217Z,945.41
2018-01-19T04:50:43.232Z,945.34
2018-01-19T04:51:43.246Z,945.38
2018-01-19T04:52:43.259Z,945.45
2018-01-19T04:53:43.274Z,945.42
2018-01-19T04:54:43.344Z,945.46
2018-01-19T04:55:43.300Z,945.5
2018-01-19T04:56:43.316Z,945.49
2018-01-19T04:57:43.328Z,945.51
2018-01-19T04:58:43.343Z,945.5
2018-01-19T04:59:43.356Z,945.58
2018-01-19T05:00:43.370Z,945.6
2018-01-19T05:01:43.384Z,945.64
2018-01-19T05:02:43.396Z,945.63
2018-01-19T05:03:43.411Z,945.62
2018-01-19T05:04:43.425Z,945.66
2018-01-19T05:05:43.439Z,945.63
2018-01-19T05:06:43.451Z,945.63
2018-01-19T05:07:43.469Z,945.69
2018-01-19T05:08:43.481Z,945.87
2018-01-19T05:09:43.542Z,945.88
2018-01-19T05:10:43.505Z,945.9
2018-01-19T05:11:43.520Z,945.88
2018-01-19T05:12:43.533Z,945.97
2018-01-19T05:13:43.546Z,945.96
2018-01-19T05:14:43.559Z,946.05
2018-01-19T05:15:43.572Z,946.02
2018-01-19T05:16:43.591Z,946.07
2018-01-19T05:17:43.600Z,946.03
2018-01-19T05:18:43.614Z,946.1
2018-01-19T05:19:43.627Z,946.1
2018-01-19T05:20:43.640Z,946.11
2018-01-19T05:21:43.711Z,946.14
2018-01-19T05:22:43.667Z,946.12
2018-01-19T05:23:43.681Z,946.19
2018-01-19T05:24:43.744Z,946.15
2018-01-19T05:25:43.708Z,946.17
2018-01-19T05:26:43.721Z,946.25
2018-01-19T05:27:43.736Z,946.24
2018-01-19T05:28:43.748Z,946.28
2018-01-19T05:29:43.762Z,946.35
2018-01-19T05:30:43.775Z,946.34
2018-01-19T05:31:43.790Z,946.28
2018-01-19T05:32:43.802Z,946.3
2018-01-19T05:33:43.816Z,946.31
2018-01-19T05:34:43.830Z,946.31
2018-01-19T05:35:43.843Z,946.4
2018-01-19T05:36:43.856Z,946.43
2018-01-19T05:37:43.893Z,946.48
2018-01-19T05:38:43.884Z,946.44
2018-01-19T05:39:43.947Z,946.53
2018-01-19T05:40:43.911Z,946.54
2018-01-19T05:41:43.925Z,946.54
2018-01-19T05:42:43.940Z,946.67
2018-01-19T05:43:43.952Z,946.65
2018-01-19T05:44:43.966Z,946.76
2018-01-19T05:45:43.981Z,946.77
2018-01-19T05:46:43.992Z,946.84
2018-01-19T05:47:44.005Z,946.81
2018-01-19T05:48:44.019Z,946.84
2018-01-19T05:49:44.033Z,946.92
2018-01-19T05:50:44.046Z,946.88
2018-01-19T05:51:44.060Z,946.9
2018-01-19T05:52:44.073Z,946.97
2018-01-19T05:53:44.086Z,946.89
2018-01-19T05:54:44.149Z,946.94
2018-01-19T05:55:44.137Z,946.94
2018-01-19T05:56:44.125Z,946.93
2018-01-19T05:57:44.142Z,947.06
2018-01-19T05:58:44.153Z,946.99
2018-01-19T05:59:44.166Z,946.96
2018-01-19T06:00:44.179Z,946.95
2018-01-19T06:01:44.193Z,946.96
2018-01-19T06:02:44.205Z,947
2018-01-19T06:03:44.220Z,946.94
2018-01-19T06:04:44.232Z,946.91
2018-01-19T06:05:44.245Z,946.85
2018-01-19T06:06:44.261Z,946.82
2018-01-19T06:07:44.273Z,946.87
2018-01-19T06:08:44.287Z,946.78
2018-01-19T06:09:44.451Z,946.84
2018-01-19T06:10:44.312Z,946.85
2018-01-19T06:11:44.326Z,946.82
2018-01-19T06:12:44.338Z,946.81
2018-01-19T06:13:44.354Z,946.85
2018-01-19T06:14:44.366Z,946.87
2018-01-19T06:15:44.380Z,946.86
2018-01-19T06:16:44.393Z,946.88
2018-01-19T06:17:44.407Z,946.96
2018-01-19T06:18:44.419Z,946.98
2018-01-19T06:19:44.533Z,947.02
2018-01-19T06:20:44.461Z,947.05
2018-01-19T06:21:44.461Z,947.03
2018-01-19T06:22:44.473Z,947.05
2018-01-19T06:23:44.484Z,947.11
2018-01-19T06:24:44.549Z,947.15
2018-01-19T06:25:44.513Z,947.2
2018-01-19T06:26:44.526Z,947.2
2018-01-19T06:27:44.539Z,947.3
2018-01-19T06:28:44.552Z,947.3
2018-01-19T06:29:44.566Z,947.2
2018-01-19T06:30:44.578Z,947.23
2018-01-19T06:31:44.591Z,947.27
2018-01-19T06:32:44.606Z,947.26
2018-01-19T06:33:44.620Z,947.32
2018-01-19T06:34:44.631Z,947.29
2018-01-19T06:35:44.646Z,947.35
2018-01-19T06:36:44.658Z,947.33
2018-01-19T06:37:44.671Z,947.37
2018-01-19T06:38:44.685Z,947.36
2018-01-19T06:39:44.747Z,947.45
2018-01-19T06:40:44.711Z,947.45
2018-01-19T06:41:44.731Z,947.45
2018-01-19T06:42:44.738Z,947.4
2018-01-19T06:43:44.753Z,947.44
2018-01-19T06:44:44.764Z,947.49
2018-01-19T06:45:44.779Z,947.56
2018-01-19T06:46:44.790Z,947.58
2018-01-19T06:47:44.804Z,947.69
2018-01-19T06:48:44.817Z,947.79
2018-01-19T06:49:44.832Z,947.83
2018-01-19T06:50:44.845Z,947.92
2018-01-19T06:51:44.858Z,947.92
2018-01-19T06:52:44.871Z,947.92
2018-01-19T06:53:44.885Z,947.96
2018-01-19T06:54:44.949Z,947.97
2018-01-19T06:55:44.912Z,947.98
2018-01-19T06:56:44.929Z,947.95
2018-01-19T06:57:44.939Z,948.01
2018-01-19T06:58:44.953Z,948.04
2018-01-19T06:59:44.967Z,948.04
2018-01-19T07:00:44.979Z,948.07
2018-01-19T07:01:44.992Z,948.13
2018-01-19T07:02:45.007Z,948.17
2018-01-19T07:03:45.019Z,948.29
2018-01-19T07:04:45.033Z,948.22
2018-01-19T07:05:45.047Z,948.25
2018-01-19T07:06:45.061Z,948.23
2018-01-19T07:07:45.073Z,948.19
2018-01-19T07:08:45.088Z,948.21
2018-01-19T07:09:45.149Z,948.24
2018-01-19T07:10:45.113Z,948.28
2018-01-19T07:11:45.127Z,948.24
2018-01-19T07:12:45.143Z,948.31
2018-01-19T07:13:45.154Z,948.33
2018-01-19T07:14:45.167Z,948.34
2018-01-19T07:15:45.180Z,948.35
2018-01-19T07:16:45.195Z,948.43
2018-01-19T07:17:45.242Z,948.42
2018-01-19T07:18:45.221Z,948.41
2018-01-19T07:19:45.234Z,948.49
2018-01-19T07:20:45.249Z,948.62
2018-01-19T07:21:45.260Z,948.57
2018-01-19T07:22:45.276Z,948.56
2018-01-19T07:23:45.289Z,948.62
2018-01-19T07:24:45.487Z,948.65
2018-01-19T07:25:45.321Z,948.68
2018-01-19T07:26:45.331Z,948.7
2018-01-19T07:27:45.342Z,948.74
2018-01-19T07:28:45.356Z,948.73
2018-01-19T07:29:45.368Z,948.78
2018-01-19T07:30:45.383Z,948.79
2018-01-19T07:31:45.397Z,948.83
2018-01-19T07:32:45.414Z,948.79
2018-01-19T07:33:45.423Z,948.76
2018-01-19T07:34:45.437Z,948.84
2018-01-19T07:35:45.451Z,948.9
2018-01-19T07:36:45.464Z,948.97
2018-01-19T07:37:45.478Z,948.93
2018-01-19T07:38:45.491Z,948.85
2018-01-19T07:39:45.554Z,949.07
2018-01-19T07:40:45.518Z,949.03
2018-01-19T07:41:45.532Z,949.18
2018-01-19T07:42:45.544Z,949.05
2018-01-19T07:43:45.558Z,949.04
2018-01-19T07:44:45.621Z,949.09
2018-01-19T07:45:45.585Z,949.25
2018-01-19T07:46:45.599Z,949.12
2018-01-19T07:47:45.647Z,949.09
2018-01-19T07:48:45.626Z,949.17
2018-01-19T07:49:45.639Z,949.14
2018-01-19T07:50:45.652Z,949.13
2018-01-19T07:51:45.666Z,949.18
2018-01-19T07:52:45.680Z,949.26
2018-01-19T07:53:45.696Z,949.35
2018-01-19T07:54:45.764Z,949.29
2018-01-19T07:55:45.720Z,949.36
2018-01-19T07:56:45.733Z,949.34
2018-01-19T07:57:45.746Z,949.4
2018-01-19T07:58:45.759Z,949.44
2018-01-19T07:59:45.778Z,949.42
2018-01-19T08:00:45.785Z,949.55
2018-01-19T08:01:45.800Z,949.51
2018-01-19T08:02:45.815Z,949.52
2018-01-19T08:03:45.827Z,949.59
2018-01-19T08:04:45.842Z,949.67
2018-01-19T08:05:45.853Z,949.64
2018-01-19T08:06:45.869Z,949.71
2018-01-19T08:07:45.881Z,949.61
2018-01-19T08:08:45.932Z,949.73
2018-01-19T08:09:45.958Z,949.77
2018-01-19T08:10:45.921Z,949.82
2018-01-19T08:11:45.936Z,949.91
2018-01-19T08:12:45.949Z,949.9
2018-01-19T08:13:45.962Z,949.96
2018-01-19T08:14:45.976Z,949.97
2018-01-19T08:15:45.990Z,949.98
2018-01-19T08:16:46.003Z,949.99
2018-01-19T08:17:46.017Z,950.03
2018-01-19T08:18:46.030Z,950.1
2018-01-19T08:19:46.043Z,950.11
2018-01-19T08:20:46.059Z,950.15
2018-01-19T08:21:46.070Z,950.11
2018-01-19T08:22:46.084Z,950.12
2018-01-19T08:23:46.097Z,950.16
2018-01-19T08:24:46.174Z,950.26
2018-01-19T08:25:46.124Z,950.26
2018-01-19T08:26:46.139Z,950.3
2018-01-19T08:27:46.154Z,950.33
2018-01-19T08:28:46.172Z,950.37
2018-01-19T08:29:46.179Z,950.39
2018-01-19T08:30:46.194Z,950.43
2018-01-19T08:31:46.207Z,950.51
2018-01-19T08:32:46.220Z,950.49
2018-01-19T08:33:46.233Z,950.43
2018-01-19T08:34:46.247Z,950.46
2018-01-19T08:35:46.261Z,950.51
2018-01-19T08:36:46.276Z,950.6
2018-01-19T08:37:46.290Z,950.61
2018-01-19T08:38:46.303Z,950.56
2018-01-19T08:39:46.367Z,950.63
2018-01-19T08:40:46.332Z,950.64
2018-01-19T08:41:46.347Z,950.57
2018-01-19T08:42:46.359Z,950.69
2018-01-19T08:43:46.374Z,950.63
2018-01-19T08:44:46.389Z,950.73
2018-01-19T08:45:46.401Z,950.82
2018-01-19T08:46:46.416Z,950.71
2018-01-19T08:47:46.429Z,950.71
2018-01-19T08:48:46.444Z,950.8
2018-01-19T08:49:46.457Z,950.72
2018-01-19T08:50:46.471Z,950.82
2018-01-19T08:51:46.579Z,950.82
2018-01-19T08:52:46.502Z,950.86
2018-01-19T08:53:46.512Z,950.9
2018-01-19T08:54:46.577Z,950.95
2018-01-19T08:55:46.541Z,950.88
2018-01-19T08:56:46.554Z,950.98
2018-01-19T08:57:46.569Z,950.98
2018-01-19T08:58:46.583Z,951.03
2018-01-19T08:59:46.596Z,950.99
2018-01-19T09:00:46.609Z,951.02
2018-01-19T09:01:46.625Z,951.07
2018-01-19T09:02:46.640Z,951.1
2018-01-19T09:03:46.655Z,951.16
2018-01-19T09:04:46.667Z,951.15
2018-01-19T09:05:46.682Z,951.2
2018-01-19T09:06:46.697Z,951.25
2018-01-19T09:07:46.710Z,951.2
2018-01-19T09:08:46.725Z,951.27
2018-01-19T09:09:46.788Z,951.08
2018-01-19T09:10:46.753Z,951.28
2018-01-19T09:11:46.767Z,951.26
2018-01-19T09:12:46.792Z,951.23
2018-01-19T09:13:46.799Z,951.2
2018-01-19T09:14:46.811Z,951.29
2018-01-19T09:15:46.824Z,951.27
2018-01-19T09:16:46.839Z,951.25
2018-01-19T09:17:46.852Z,951.23
2018-01-19T09:18:46.865Z,951.29
2018-01-19T09:19:46.881Z,951.24
2018-01-19T09:20:46.896Z,951.24
2018-01-19T09:21:46.910Z,951.18
2018-01-19T09:22:46.925Z,951.27
2018-01-19T09:23:46.938Z,951.27
2018-01-19T09:24:47.002Z,951.32
2018-01-19T09:25:46.968Z,951.26
2018-01-19T09:26:46.981Z,951.31
2018-01-19T09:27:46.996Z,951.33
2018-01-19T09:28:47.011Z,951.28
2018-01-19T09:29:47.025Z,951.38
2018-01-19T09:30:47.039Z,951.36
2018-01-19T09:31:47.056Z,951.42
2018-01-19T09:32:47.070Z,951.45
2018-01-19T09:33:47.083Z,951.42
2018-01-19T09:34:47.097Z,951.34
2018-01-19T09:35:47.113Z,951.42
2018-01-19T09:36:47.128Z,951.46
2018-01-19T09:37:47.143Z,951.47
2018-01-19T09:38:47.182Z,951.42
2018-01-19T09:39:47.223Z,951.51
2018-01-19T09:40:47.187Z,951.47
2018-01-19T09:41:47.202Z,951.48
2018-01-19T09:42:47.219Z,951.53
2018-01-19T09:43:47.234Z,951.47
2018-01-19T09:44:47.248Z,951.45
2018-01-19T09:45:47.263Z,951.4
2018-01-19T09:46:47.278Z,951.55
2018-01-19T09:47:47.294Z,951.64
2018-01-19T09:48:47.310Z,951.47
2018-01-19T09:49:47.324Z,951.43
2018-01-19T09:50:47.340Z,951.62
2018-01-19T09:51:47.354Z,951.61
2018-01-19T09:52:47.369Z,951.45
2018-01-19T09:53:47.385Z,951.45
2018-01-19T09:54:47.451Z,951.56
2018-01-19T09:55:47.415Z,951.59
2018-01-19T09:56:47.430Z,951.56
2018-01-19T09:57:47.446Z,951.61
2018-01-19T09:58:47.472Z,951.49
2018-01-19T09:59:47.476Z,951.56
2018-01-19T10:00:47.492Z,951.51
2018-01-19T10:01:47.507Z,951.51
2018-01-19T10:02:47.524Z,951.66
2018-01-19T10:03:47.539Z,951.5
2018-01-19T10:04:47.569Z,951.5
2018-01-19T10:05:47.570Z,951.49
2018-01-19T10:06:47.585Z,951.53
2018-01-19T10:07:47.601Z,951.59
2018-01-19T10:08:47.616Z,951.63
2018-01-19T10:09:47.680Z,951.5
2018-01-19T10:10:47.647Z,951.65
2018-01-19T10:11:47.661Z,951.63
2018-01-19T10:12:47.678Z,951.65
2018-01-19T10:13:47.692Z,951.6
2018-01-19T10:14:47.709Z,951.6
2018-01-19T10:15:47.724Z,951.63
2018-01-19T10:16:47.741Z,951.65
2018-01-19T10:17:47.757Z,951.67
2018-01-19T10:18:47.775Z,951.72
2018-01-19T10:19:47.792Z,951.76
2018-01-19T10:20:47.809Z,951.7
2018-01-19T10:21:47.826Z,951.68
2018-01-19T10:22:47.845Z,951.66
2018-01-19T10:23:47.863Z,951.62
2018-01-19T10:24:47.931Z,951.52
2018-01-19T10:25:47.899Z,951.66
2018-01-19T10:26:47.919Z,951.61
2018-01-19T10:27:47.981Z,951.62
2018-01-19T10:28:47.955Z,951.48
2018-01-19T10:29:47.975Z,951.67
2018-01-19T10:30:47.994Z,951.45
2018-01-19T10:31:48.013Z,951.69
2018-01-19T10:32:48.034Z,951.58
2018-01-19T10:33:48.053Z,951.57
2018-01-19T10:34:48.071Z,951.52
2018-01-19T10:35:48.091Z,951.57
2018-01-19T10:36:48.109Z,951.56
2018-01-19T10:37:48.130Z,951.62
2018-01-19T10:38:48.151Z,951.72
2018-01-19T10:39:48.171Z,951.52
2018-01-19T10:40:48.186Z,951.54
2018-01-19T10:41:48.207Z,951.55
2018-01-19T10:42:48.273Z,951.48
2018-01-19T10:43:48.243Z,951.59
2018-01-19T10:44:48.423Z,951.54
2018-01-19T10:45:48.282Z,951.63
2018-01-19T10:46:48.298Z,951.57
2018-01-19T10:47:48.317Z,951.58
2018-01-19T10:48:48.334Z,951.61
2018-01-19T10:49:48.352Z,951.63
2018-01-19T10:50:48.371Z,951.57
2018-01-19T10:51:48.389Z,951.62
2018-01-19T10:52:48.406Z,951.65
2018-01-19T10:53:48.422Z,951.55
2018-01-19T10:54:48.440Z,951.58
2018-01-19T10:55:48.458Z,951.62
2018-01-19T10:56:48.489Z,951.6
2018-01-19T10:57:48.542Z,951.48
2018-01-19T10:58:48.509Z,951.69
2018-01-19T10:59:48.527Z,951.61
2018-01-19T11:00:48.543Z,951.55
2018-01-19T11:01:48.559Z,951.53
2018-01-19T11:02:48.576Z,951.51
2018-01-19T11:03:48.593Z,951.6
2018-01-19T11:04:48.610Z,951.52
2018-01-19T11:05:48.626Z,951.47
2018-01-19T11:06:48.642Z,951.45
2018-01-19T11:07:48.658Z,951.46
2018-01-19T11:08:48.675Z,951.42
2018-01-19T11:09:48.691Z,951.52
2018-01-19T11:10:48.706Z,951.48
2018-01-19T11:11:48.724Z,951.51
2018-01-19T11:12:48.741Z,951.54
2018-01-19T11:13:48.806Z,951.46
2018-01-19T11:14:48.772Z,951.37
2018-01-19T11:15:48.788Z,951.3
2018-01-19T11:16:48.805Z,951.37
2018-01-19T11:17:48.820Z,951.37
2018-01-19T11:18:48.842Z,951.39
2018-01-19T11:19:48.853Z,951.47
2018-01-19T11:20:48.868Z,951.42
2018-01-19T11:21:48.886Z,951.51
2018-01-19T11:22:48.901Z,951.67
2018-01-19T11:23:48.917Z,951.41
2018-01-19T11:24:48.935Z,951.28
2018-01-19T11:25:48.951Z,951.72
2018-01-19T11:26:48.967Z,951.62
2018-01-19T11:27:48.983Z,951.61
2018-01-19T11:28:49.056Z,951.73
2018-01-19T11:29:49.017Z,951.78
2018-01-19T11:30:49.034Z,951.74
2018-01-19T11:31:49.052Z,951.67
2018-01-19T11:32:49.072Z,951.79
2018-01-19T11:33:49.090Z,951.83
2018-01-19T11:34:49.109Z,951.83
2018-01-19T11:35:49.129Z,951.69
2018-01-19T11:36:49.151Z,951.77
2018-01-19T11:37:49.170Z,951.65
2018-01-19T11:38:49.192Z,951.74
2018-01-19T11:39:49.214Z,951.79
2018-01-19T11:40:49.286Z,951.74
2018-01-19T11:41:49.257Z,951.67
2018-01-19T11:42:49.281Z,951.7
2018-01-19T11:43:49.354Z,951.72
2018-01-19T11:44:49.326Z,951.84
2018-01-19T11:45:49.351Z,951.76
2018-01-19T11:46:49.374Z,951.72
2018-01-19T11:47:49.398Z,951.8
2018-01-19T11:48:49.425Z,951.8
2018-01-19T11:49:49.495Z,951.75
2018-01-19T11:50:49.469Z,951.76
2018-01-19T11:51:49.495Z,951.41
2018-01-19T11:52:49.518Z,951.84
2018-01-19T11:53:49.543Z,951.76
2018-01-19T11:54:49.567Z,951.7
2018-01-19T11:55:49.608Z,951.59
2018-01-19T11:56:49.630Z,951.64
2018-01-19T11:57:49.640Z,951.76
2018-01-19T11:58:49.665Z,951.56
2018-01-19T11:59:49.838Z,951.53
2018-01-19T12:00:49.712Z,951.48
2018-01-19T12:01:49.736Z,951.88
2018-01-19T12:02:49.760Z,951.9
2018-01-19T12:03:49.784Z,951.74
2018-01-19T12:04:49.807Z,951.76
2018-01-19T12:05:49.831Z,951.71
2018-01-19T12:06:49.854Z,951.51
2018-01-19T12:07:49.878Z,951.59
2018-01-19T12:08:49.902Z,951.93
2018-01-19T12:09:49.926Z,952.01
2018-01-19T12:10:49.948Z,951.84
2018-01-19T12:11:49.972Z,951.84
2018-01-19T12:12:49.995Z,951.6
2018-01-19T12:13:50.019Z,951.49
2018-01-19T12:14:50.091Z,951.55
2018-01-19T12:15:50.064Z,951.52
2018-01-19T12:16:50.088Z,951.49
2018-01-19T12:17:50.109Z,951.9
2018-01-19T12:18:50.133Z,952.03
2018-01-19T12:19:50.159Z,952
2018-01-19T12:20:50.178Z,951.57
2018-01-19T12:21:50.200Z,951.67
2018-01-19T12:22:50.224Z,952.03
2018-01-19T12:23:50.247Z,951.89
2018-01-19T12:24:50.270Z,951.68
2018-01-19T12:25:50.292Z,951.59
2018-01-19T12:26:50.315Z,951.93
2018-01-19T12:27:50.352Z,951.57
2018-01-19T12:28:50.362Z,951.61
2018-01-19T12:29:50.684Z,951.51
2018-01-19T12:30:50.406Z,951.85
2018-01-19T12:31:50.428Z,951.65
2018-01-19T12:32:50.451Z,951.54
2018-01-19T12:33:50.472Z,951.58
2018-01-19T12:34:50.495Z,951.98
2018-01-19T12:35:50.517Z,951.67
2018-01-19T12:36:50.538Z,951.44
2018-01-19T12:37:50.561Z,951.47
2018-01-19T12:38:50.582Z,951.56
2018-01-19T12:39:50.704Z,951.91
2018-01-19T12:40:50.625Z,951.94
2018-01-19T12:41:50.647Z,952.05
2018-01-19T12:42:50.670Z,951.47
2018-01-19T12:43:50.690Z,951.42
2018-01-19T12:44:50.762Z,952.02
2018-01-19T12:45:50.734Z,951.44
2018-01-19T12:46:50.756Z,951.67
2018-01-19T12:47:50.781Z,951.41
2018-01-19T12:48:50.804Z,952.05
2018-01-19T12:49:50.823Z,951.49
2018-01-19T12:50:50.861Z,951.43
2018-01-19T12:51:50.864Z,951.95
2018-01-19T12:52:50.886Z,951.87
2018-01-19T12:53:50.908Z,951.87
2018-01-19T12:54:50.929Z,951.33
2018-01-19T12:55:50.952Z,951.52
2018-01-19T12:56:50.976Z,951.92
2018-01-19T12:57:50.995Z,951.97
2018-01-19T12:58:51.016Z,951.4
2018-01-19T12:59:51.191Z,952
2018-01-19T13:00:51.064Z,951.94
2018-01-19T13:01:51.086Z,951.93
2018-01-19T13:02:51.108Z,951.85